createdAt,value
2019-04-23T00:04:45.579Z,4.70
2019-04-23T00:10:26.271Z,7.47
2019-04-23T00:15:55.302Z,7.90
2019-04-23T00:21:15.533Z,4.60
2019-04-23T00:26:51.583Z,4.25
2019-04-23T00:32:15.094Z,8.15
2019-04-23T00:42:51.222Z,5.30
2019-04-23T00:48:09.299Z,8.08
2019-04-23T00:53:36.962Z,4.90
2019-04-23T00:58:54.968Z,4.17
2019-04-23T01:03:58.115Z,5.58
2019-04-23T01:09:30.908Z,6.50
2019-04-23T01:15:06.912Z,7.90
2019-04-23T01:20:36.819Z,5.22
2019-04-23T01:25:51.696Z,8.90
2019-04-23T01:31:14.721Z,8.30
2019-04-23T01:36:36.045Z,9.45
2019-04-23T01:47:38.380Z,10.30
2019-04-23T01:53:14.335Z,6.53
2019-04-23T02:04:09.662Z,6.83
2019-04-23T02:09:42.292Z,11.43
2019-04-23T02:15:03.631Z,9.43
2019-04-23T02:20:23.652Z,7.53
2019-04-23T02:25:54.071Z,6.72
2019-04-23T02:37:40.887Z,5.97
2019-04-23T02:43:01.708Z,7.78
2019-04-23T03:22:58.998Z,6.92
2019-04-23T03:39:40.296Z,7.78
2019-04-23T03:45:16.625Z,6.70
2019-04-23T04:02:04.377Z,6.90
2019-04-23T04:23:49.309Z,10.43
2019-04-23T04:50:55.532Z,8.28
2019-04-23T05:02:43.570Z,11.95
2019-04-23T05:07:47.425Z,9.28
2019-04-23T05:12:45.222Z,9.28
2019-04-23T05:18:17.407Z,8.80
2019-04-23T05:28:28.447Z,7.80
2019-04-23T05:33:22.423Z,8.68
2019-04-23T05:38:43.786Z,9.28
2019-04-23T05:43:38.444Z,10.88
2019-04-23T05:48:33.366Z,10.68
2019-04-23T05:53:42.454Z,9.58
2019-04-23T05:58:48.950Z,7.78
2019-04-23T06:03:56.973Z,9.83
2019-04-23T06:08:53.568Z,10.80
2019-04-23T06:24:16.346Z,11.05
2019-04-23T06:39:23.391Z,11.78
2019-04-23T06:44:32.377Z,10.35
2019-04-23T06:54:49.347Z,12.43
2019-04-23T06:59:51.604Z,14.28
2019-04-23T07:04:57.162Z,9.68
2019-04-23T07:09:56.219Z,12.13
2019-04-23T07:15:14.610Z,9.03
2019-04-23T07:20:02.709Z,10.93
2019-04-23T07:25:14.918Z,11.20
2019-04-23T07:35:15.941Z,15.50
2019-04-23T07:40:31.301Z,13.40
2019-04-23T07:45:54.745Z,12.37
2019-04-23T07:50:55.078Z,11.93
2019-04-23T07:56:02.114Z,12.75
2019-04-23T08:01:06.915Z,9.38
2019-04-23T08:16:27.776Z,12.03
2019-04-23T08:21:25.824Z,11.28
2019-04-23T08:32:02.507Z,10.40
2019-04-23T08:37:04.624Z,9.13
2019-04-23T08:42:28.808Z,8.98
2019-04-23T08:47:17.149Z,9.40
2019-04-23T08:52:18.262Z,14.68
2019-04-23T08:57:22.711Z,11.83
2019-04-23T09:02:31.240Z,9.83
2019-04-23T09:12:35.092Z,11.95
2019-04-23T09:17:44.393Z,9.10
2019-04-23T09:22:38.830Z,11.78
2019-04-23T09:27:45.465Z,8.18
2019-04-23T09:33:00.843Z,11.48
2019-04-23T09:38:31.548Z,12.80
2019-04-23T09:44:27.591Z,13.15
2019-04-23T09:49:14.985Z,8.05
2019-04-23T09:54:21.897Z,10.50
2019-04-23T09:59:25.607Z,9.93
2019-04-23T10:04:18.614Z,8.00
2019-04-23T10:09:10.573Z,11.80
2019-04-23T10:14:14.475Z,8.13
2019-04-23T10:19:19.011Z,12.93
2019-04-23T10:24:23.191Z,11.50
2019-04-23T10:29:31.988Z,11.78
2019-04-23T10:34:46.094Z,13.15
2019-04-23T10:39:42.695Z,9.05
2019-04-23T10:44:52.154Z,9.93
2019-04-23T10:50:49.578Z,7.22
2019-04-23T11:01:07.922Z,18.05
2019-04-23T11:06:06.763Z,9.60
2019-04-23T11:11:07.851Z,9.90
2019-04-23T11:21:23.604Z,8.63
2019-04-23T11:26:22.949Z,12.33
2019-04-23T11:31:31.029Z,10.98
2019-04-23T11:36:47.909Z,10.20
2019-04-23T11:46:57.230Z,7.30
2019-04-23T11:51:54.730Z,10.65
2019-04-23T11:57:27.150Z,15.18
2019-04-23T12:02:05.312Z,10.75
2019-04-23T12:07:22.680Z,12.95
2019-04-23T12:12:31.171Z,8.58
2019-04-23T12:17:47.085Z,12.58
2019-04-23T12:22:45.617Z,13.72
2019-04-23T12:27:33.407Z,11.08
2019-04-23T12:38:00.986Z,14.55
2019-04-23T12:43:25.742Z,18.70
2019-04-23T12:53:25.848Z,13.65
2019-04-23T13:13:44.396Z,13.88
2019-04-23T13:18:41.554Z,10.13
2019-04-23T13:23:49.445Z,11.65
2019-04-23T13:28:50.960Z,10.93
2019-04-23T13:34:19.542Z,14.10
2019-04-23T13:38:54.762Z,15.70
2019-04-23T13:44:00.251Z,11.38
2019-04-23T13:49:07.411Z,11.80
2019-04-23T13:54:17.257Z,12.53
2019-04-23T13:59:31.448Z,12.98
2019-04-23T14:04:48.401Z,13.78
2019-04-23T14:20:04.526Z,12.20
2019-04-23T14:31:01.147Z,11.20
2019-04-23T14:36:00.520Z,19.35
2019-04-23T14:41:12.890Z,11.43
2019-04-23T14:51:39.618Z,11.35
2019-04-23T14:56:22.258Z,15.72
2019-04-23T15:01:47.560Z,15.15
2019-04-23T15:11:52.730Z,9.75
2019-04-23T15:16:46.634Z,12.03
2019-04-23T15:22:05.163Z,13.30
2019-04-23T15:32:00.770Z,10.93
2019-04-23T15:37:19.216Z,13.65
2019-04-23T15:42:14.463Z,11.80
2019-04-23T15:52:40.138Z,14.63
2019-04-23T15:57:18.123Z,12.63
2019-04-23T16:01:55.373Z,11.83
2019-04-23T16:06:59.434Z,11.90
2019-04-23T16:12:25.343Z,15.63
2019-04-23T16:17:37.121Z,9.68
2019-04-23T16:22:36.739Z,15.28
2019-04-23T16:27:45.187Z,13.53
2019-04-23T16:38:23.254Z,12.40
2019-04-23T16:58:36.557Z,16.23
2019-04-23T17:03:31.865Z,13.58
2019-04-23T17:13:44.697Z,14.98
2019-04-23T17:18:48.703Z,19.07
2019-04-23T17:29:02.942Z,15.58
2019-04-23T17:34:12.141Z,16.25
2019-04-23T17:39:11.969Z,16.10
2019-04-23T17:44:23.516Z,15.13
2019-04-23T17:49:26.410Z,12.70
2019-04-23T18:00:05.452Z,13.62
2019-04-23T18:10:13.296Z,11.45
2019-04-23T18:15:00.403Z,11.70
2019-04-23T18:50:32.795Z,18.00
2019-04-23T18:56:03.896Z,12.13
2019-04-23T19:01:19.841Z,15.05
2019-04-23T19:06:45.679Z,20.80
2019-04-23T19:13:24.950Z,19.60
2019-04-23T19:19:40.616Z,15.60
2019-04-23T19:24:38.522Z,18.17
2019-04-23T19:29:46.235Z,17.60
2019-04-23T19:34:42.661Z,18.05
2019-04-23T19:40:03.952Z,14.38
2019-04-23T19:56:36.544Z,16.37
2019-04-23T20:02:00.235Z,14.23
2019-04-23T20:12:26.895Z,11.68
2019-04-23T20:23:52.579Z,14.40
